sensor_id;sensor_type;location;lat;lon;timestamp;temperature;humidity
54516;DHT22;40422;45.892;4.738;2023-08-31T03:02:29;15.30;99.90
54516;DHT22;40422;45.892;4.738;2023-08-31T03:04:56;15.20;99.90
54516;DHT22;40422;45.892;4.738;2023-08-31T03:07:22;15.20;99.90
54516;DHT22;40422;45.892;4.738;2023-08-31T03:09:50;15.20;99.90
54516;DHT22;40422;45.892;4.738;2023-08-31T03:12:16;15.10;99.90
54516;DHT22;40422;45.892;4.738;2023-08-31T03:14:41;15.10;99.90
54516;DHT22;40422;45.892;4.738;2023-08-31T03:17:07;15.10;99.90
54516;DHT22;40422;45.892;4.738;2023-08-31T03:19:33;15.10;99.90
54516;DHT22;40422;45.892;4.738;2023-08-31T03:21:58;15.10;99.90
54516;DHT22;40422;45.892;4.738;2023-08-31T03:24:24;15.10;99.90
54516;DHT22;40422;45.892;4.738;2023-08-31T03:26:49;15.10;99.90
54516;DHT22;40422;45.892;4.738;2023-08-31T03:29:15;15.10;99.90
54516;DHT22;40422;45.892;4.738;2023-08-31T03:31:40;15.10;99.90
54516;DHT22;40422;45.892;4.738;2023-08-31T03:34:06;14.90;99.90
54516;DHT22;40422;45.892;4.738;2023-08-31T03:36:31;14.90;99.90
54516;DHT22;40422;45.892;4.738;2023-08-31T03:38:57;14.90;99.90
54516;DHT22;40422;45.892;4.738;2023-08-31T03:41:23;14.90;99.90
54516;DHT22;40422;45.892;4.738;2023-08-31T03:43:49;14.90;99.90
54516;DHT22;40422;45.892;4.738;2023-08-31T03:46:15;14.90;99.90
54516;DHT22;40422;45.892;4.738;2023-08-31T03:48:40;14.90;99.90
54516;DHT22;40422;45.892;4.738;2023-08-31T03:51:06;15.00;99.90
54516;DHT22;40422;45.892;4.738;2023-08-31T03:53:32;14.90;99.90
54516;DHT22;40422;45.892;4.738;2023-08-31T03:55:57;14.80;99.90
54516;DHT22;40422;45.892;4.738;2023-08-31T03:58:23;14.80;99.90
54516;DHT22;40422;45.892;4.738;2023-08-31T04:00:49;14.70;99.90
54516;DHT22;40422;45.892;4.738;2023-08-31T04:03:15;14.70;99.90
54516;DHT22;40422;45.892;4.738;2023-08-31T04:05:41;14.80;99.90
54516;DHT22;40422;45.892;4.738;2023-08-31T04:08:07;14.70;99.90
54516;DHT22;40422;45.892;4.738;2023-08-31T04:10:33;14.70;99.90
54516;DHT22;40422;45.892;4.738;2023-08-31T04:12:58;14.70;99.90
54516;DHT22;40422;45.892;4.738;2023-08-31T04:15:24;14.70;99.90
54516;DHT22;40422;45.892;4.738;2023-08-31T04:17:50;14.70;99.90
54516;DHT22;40422;45.892;4.738;2023-08-31T04:20:16;14.70;99.90
54516;DHT22;40422;45.892;4.738;2023-08-31T04:22:41;14.60;99.90
54516;DHT22;40422;45.892;4.738;2023-08-31T04:25:07;14.50;99.90
54516;DHT22;40422;45.892;4.738;2023-08-31T04:27:33;14.50;99.90
54516;DHT22;40422;45.892;4.738;2023-08-31T04:30:00;14.40;99.90
54516;DHT22;40422;45.892;4.738;2023-08-31T04:32:26;14.40;99.90
54516;DHT22;40422;45.892;4.738;2023-08-31T04:34:52;14.30;99.90
54516;DHT22;40422;45.892;4.738;2023-08-31T04:37:17;14.30;99.90
54516;DHT22;40422;45.892;4.738;2023-08-31T04:39:43;14.30;99.90
54516;DHT22;40422;45.892;4.738;2023-08-31T04:42:09;14.20;99.90
54516;DHT22;40422;45.892;4.738;2023-08-31T04:44:34;14.20;99.90
54516;DHT22;40422;45.892;4.738;2023-08-31T04:47:00;14.20;99.90
54516;DHT22;40422;45.892;4.738;2023-08-31T04:49:26;14.20;99.90
54516;DHT22;40422;45.892;4.738;2023-08-31T04:51:52;14.10;99.90
54516;DHT22;40422;45.892;4.738;2023-08-31T04:54:18;14.00;99.90
54516;DHT22;40422;45.892;4.738;2023-08-31T04:56:44;14.00;99.90
54516;DHT22;40422;45.892;4.738;2023-08-31T04:59:09;14.00;99.90
54516;DHT22;40422;45.892;4.738;2023-08-31T05:01:35;14.00;99.90
54516;DHT22;40422;45.892;4.738;2023-08-31T05:04:02;14.00;99.90
54516;DHT22;40422;45.892;4.738;2023-08-31T05:06:28;14.00;99.90
54516;DHT22;40422;45.892;4.738;2023-08-31T05:08:53;14.10;99.90
54516;DHT22;40422;45.892;4.738;2023-08-31T05:11:19;14.10;99.90
54516;DHT22;40422;45.892;4.738;2023-08-31T05:13:44;14.20;99.90
54516;DHT22;40422;45.892;4.738;2023-08-31T05:16:10;14.20;99.90
54516;DHT22;40422;45.892;4.738;2023-08-31T05:18:37;14.20;99.90
54516;DHT22;40422;45.892;4.738;2023-08-31T05:21:03;14.20;99.90
54516;DHT22;40422;45.892;4.738;2023-08-31T05:23:30;14.20;99.90
54516;DHT22;40422;45.892;4.738;2023-08-31T05:25:56;14.30;99.90
54516;DHT22;40422;45.892;4.738;2023-08-31T05:28:26;14.30;99.90
54516;DHT22;40422;45.892;4.738;2023-08-31T05:30:56;14.40;99.90
54516;DHT22;40422;45.892;4.738;2023-08-31T05:33:23;14.50;99.90
54516;DHT22;40422;45.892;4.738;2023-08-31T05:35:51;14.60;99.90
54516;DHT22;40422;45.892;4.738;2023-08-31T05:38:16;14.70;99.90
54516;DHT22;40422;45.892;4.738;2023-08-31T05:40:42;14.80;99.90
54516;DHT22;40422;45.892;4.738;2023-08-31T05:43:13;14.80;99.90
54516;DHT22;40422;45.892;4.738;2023-08-31T05:45:39;14.80;99.90
54516;DHT22;40422;45.892;4.738;2023-08-31T05:48:05;14.90;99.90
54516;DHT22;40422;45.892;4.738;2023-08-31T05:50:31;14.90;99.90
54516;DHT22;40422;45.892;4.738;2023-08-31T05:52:57;14.90;99.90
54516;DHT22;40422;45.892;4.738;2023-08-31T05:55:23;14.90;99.90
54516;DHT22;40422;45.892;4.738;2023-08-31T05:57:49;14.90;99.90
54516;DHT22;40422;45.892;4.738;2023-08-31T06:00:15;14.90;99.90
54516;DHT22;40422;45.892;4.738;2023-08-31T06:02:42;14.90;99.90
54516;DHT22;40422;45.892;4.738;2023-08-31T06:05:10;14.90;99.90
54516;DHT22;40422;45.892;4.738;2023-08-31T06:07:38;14.90;99.90
54516;DHT22;40422;45.892;4.738;2023-08-31T06:10:04;15.00;99.90
54516;DHT22;40422;45.892;4.738;2023-08-31T06:12:30;15.10;99.90
54516;DHT22;40422;45.892;4.738;2023-08-31T06:14:55;15.30;99.90
54516;DHT22;40422;45.892;4.738;2023-08-31T06:17:21;15.60;99.90
54516;DHT22;40422;45.892;4.738;2023-08-31T06:19:47;15.80;99.90
54516;DHT22;40422;45.892;4.738;2023-08-31T06:22:12;16.00;99.90
54516;DHT22;40422;45.892;4.738;2023-08-31T06:24:38;16.30;99.90
54516;DHT22;40422;45.892;4.738;2023-08-31T06:27:04;16.40;99.90
54516;DHT22;40422;45.892;4.738;2023-08-31T06:29:29;16.60;99.90
54516;DHT22;40422;45.892;4.738;2023-08-31T06:31:55;16.70;99.90
54516;DHT22;40422;45.892;4.738;2023-08-31T06:34:21;16.90;99.90
54516;DHT22;40422;45.892;4.738;2023-08-31T06:36:46;17.10;99.90
54516;DHT22;40422;45.892;4.738;2023-08-31T06:39:12;17.30;99.90
54516;DHT22;40422;45.892;4.738;2023-08-31T06:41:37;17.40;99.90
54516;DHT22;40422;45.892;4.738;2023-08-31T06:44:03;17.50;99.90
54516;DHT22;40422;45.892;4.738;2023-08-31T06:46:36;17.60;99.90
54516;DHT22;40422;45.892;4.738;2023-08-31T06:49:05;17.70;99.90
54516;DHT22;40422;45.892;4.738;2023-08-31T06:51:34;17.80;99.90
54516;DHT22;40422;45.892;4.738;2023-08-31T06:54:00;17.90;99.90
54516;DHT22;40422;45.892;4.738;2023-08-31T06:56:33;18.00;99.90
54516;DHT22;40422;45.892;4.738;2023-08-31T06:58:58;18.10;99.90
54516;DHT22;40422;45.892;4.738;2023-08-31T07:01:24;18.20;99.90
54516;DHT22;40422;45.892;4.738;2023-08-31T07:03:50;18.30;99.90
54516;DHT22;40422;45.892;4.738;2023-08-31T07:06:15;18.50;99.90
54516;DHT22;40422;45.892;4.738;2023-08-31T07:08:41;18.60;99.90
54516;DHT22;40422;45.892;4.738;2023-08-31T07:11:07;18.80;99.90
54516;DHT22;40422;45.892;4.738;2023-08-31T07:13:33;18.90;99.90
54516;DHT22;40422;45.892;4.738;2023-08-31T07:15:58;19.10;99.90
54516;DHT22;40422;45.892;4.738;2023-08-31T07:18:24;19.20;99.90
54516;DHT22;40422;45.892;4.738;2023-08-31T07:20:49;19.40;99.90
54516;DHT22;40422;45.892;4.738;2023-08-31T07:23:15;19.30;99.90
54516;DHT22;40422;45.892;4.738;2023-08-31T07:25:41;19.40;99.90
54516;DHT22;40422;45.892;4.738;2023-08-31T07:28:07;19.50;99.90
54516;DHT22;40422;45.892;4.738;2023-08-31T07:30:33;19.70;99.90
54516;DHT22;40422;45.892;4.738;2023-08-31T07:32:58;19.70;99.90
54516;DHT22;40422;45.892;4.738;2023-08-31T07:35:28;19.80;99.90
54516;DHT22;40422;45.892;4.738;2023-08-31T07:37:54;19.70;99.90
54516;DHT22;40422;45.892;4.738;2023-08-31T07:40:20;19.80;99.90
54516;DHT22;40422;45.892;4.738;2023-08-31T07:42:46;19.80;99.90
54516;DHT22;40422;45.892;4.738;2023-08-31T07:45:12;20.00;99.90
54516;DHT22;40422;45.892;4.738;2023-08-31T07:47:37;20.00;99.90
54516;DHT22;40422;45.892;4.738;2023-08-31T07:50:03;20.10;99.90
54516;DHT22;40422;45.892;4.738;2023-08-31T07:52:29;20.20;99.90
54516;DHT22;40422;45.892;4.738;2023-08-31T07:54:55;20.00;99.90
54516;DHT22;40422;45.892;4.738;2023-08-31T07:57:21;20.00;99.90
54516;DHT22;40422;45.892;4.738;2023-08-31T07:59:47;20.00;99.40
54516;DHT22;40422;45.892;4.738;2023-08-31T08:02:12;19.90;99.90
54516;DHT22;40422;45.892;4.738;2023-08-31T08:04:38;20.00;99.90
54516;DHT22;40422;45.892;4.738;2023-08-31T08:07:04;20.20;99.70
54516;DHT22;40422;45.892;4.738;2023-08-31T08:09:29;20.40;98.90
54516;DHT22;40422;45.892;4.738;2023-08-31T08:11:55;20.50;98.50
54516;DHT22;40422;45.892;4.738;2023-08-31T08:14:21;20.30;98.20
54516;DHT22;40422;45.892;4.738;2023-08-31T08:16:47;20.30;98.40
54516;DHT22;40422;45.892;4.738;2023-08-31T08:19:13;20.40;98.40
54516;DHT22;40422;45.892;4.738;2023-08-31T08:21:39;20.60;97.60
54516;DHT22;40422;45.892;4.738;2023-08-31T08:24:05;20.60;96.80
54516;DHT22;40422;45.892;4.738;2023-08-31T08:26:30;20.60;97.20
54516;DHT22;40422;45.892;4.738;2023-08-31T08:28:56;20.70;96.70
54516;DHT22;40422;45.892;4.738;2023-08-31T08:31:21;20.80;96.80
54516;DHT22;40422;45.892;4.738;2023-08-31T08:33:47;21.00;96.20
54516;DHT22;40422;45.892;4.738;2023-08-31T08:36:13;21.00;95.60
54516;DHT22;40422;45.892;4.738;2023-08-31T08:38:38;21.10;95.80
54516;DHT22;40422;45.892;4.738;2023-08-31T08:41:07;21.30;95.60
54516;DHT22;40422;45.892;4.738;2023-08-31T08:43:33;21.60;95.30
54516;DHT22;40422;45.892;4.738;2023-08-31T08:46:04;21.70;94.30
54516;DHT22;40422;45.892;4.738;2023-08-31T08:48:33;21.90;94.00
54516;DHT22;40422;45.892;4.738;2023-08-31T08:50:59;22.00;94.60
54516;DHT22;40422;45.892;4.738;2023-08-31T08:53:25;22.00;93.40
54516;DHT22;40422;45.892;4.738;2023-08-31T08:55:51;22.00;93.20
54516;DHT22;40422;45.892;4.738;2023-08-31T08:58:16;21.80;93.60
54516;DHT22;40422;45.892;4.738;2023-08-31T09:00:42;21.80;93.20
54516;DHT22;40422;45.892;4.738;2023-08-31T09:03:08;21.90;93.00
54516;DHT22;40422;45.892;4.738;2023-08-31T09:05:34;22.20;93.20
54516;DHT22;40422;45.892;4.738;2023-08-31T09:08:06;22.50;92.10
54516;DHT22;40422;45.892;4.738;2023-08-31T09:10:45;22.20;92.30
54516;DHT22;40422;45.892;4.738;2023-08-31T09:13:13;22.10;92.10
54516;DHT22;40422;45.892;4.738;2023-08-31T09:15:40;22.30;92.00
54516;DHT22;40422;45.892;4.738;2023-08-31T09:18:07;22.40;92.10
54516;DHT22;40422;45.892;4.738;2023-08-31T09:20:46;22.10;91.70
54516;DHT22;40422;45.892;4.738;2023-08-31T09:23:15;21.90;92.10
54516;DHT22;40422;45.892;4.738;2023-08-31T09:25:43;21.90;92.20
54516;DHT22;40422;45.892;4.738;2023-08-31T09:28:10;21.80;91.60
54516;DHT22;40422;45.892;4.738;2023-08-31T09:30:37;21.70;91.50
54516;DHT22;40422;45.892;4.738;2023-08-31T09:33:09;21.60;92.10
54516;DHT22;40422;45.892;4.738;2023-08-31T09:35:39;21.60;92.20
54516;DHT22;40422;45.892;4.738;2023-08-31T09:38:08;21.50;92.00
54516;DHT22;40422;45.892;4.738;2023-08-31T09:40:36;21.50;92.30
54516;DHT22;40422;45.892;4.738;2023-08-31T09:43:01;22.00;92.10
54516;DHT22;40422;45.892;4.738;2023-08-31T09:45:31;22.60;91.40
54516;DHT22;40422;45.892;4.738;2023-08-31T09:47:59;23.20;88.20
54516;DHT22;40422;45.892;4.738;2023-08-31T09:50:29;23.50;87.30
54516;DHT22;40422;45.892;4.738;2023-08-31T09:52:55;23.40;88.60
54516;DHT22;40422;45.892;4.738;2023-08-31T09:55:25;23.30;88.90
54516;DHT22;40422;45.892;4.738;2023-08-31T09:57:56;22.90;90.60
54516;DHT22;40422;45.892;4.738;2023-08-31T10:00:26;22.50;91.20
54516;DHT22;40422;45.892;4.738;2023-08-31T10:02:56;22.30;90.80
54516;DHT22;40422;45.892;4.738;2023-08-31T10:05:23;22.20;91.10
54516;DHT22;40422;45.892;4.738;2023-08-31T10:07:50;22.20;91.30
54516;DHT22;40422;45.892;4.738;2023-08-31T10:10:16;22.30;91.00
54516;DHT22;40422;45.892;4.738;2023-08-31T10:12:43;22.60;90.40
54516;DHT22;40422;45.892;4.738;2023-08-31T10:15:10;22.80;90.00
54516;DHT22;40422;45.892;4.738;2023-08-31T10:17:36;22.80;88.90
54516;DHT22;40422;45.892;4.738;2023-08-31T10:20:03;23.00;86.40
54516;DHT22;40422;45.892;4.738;2023-08-31T10:22:29;23.30;86.80
54516;DHT22;40422;45.892;4.738;2023-08-31T10:27:24;23.90;84.10
54516;DHT22;40422;45.892;4.738;2023-08-31T10:29:50;24.30;83.90
54516;DHT22;40422;45.892;4.738;2023-08-31T10:32:19;24.60;80.60
54516;DHT22;40422;45.892;4.738;2023-08-31T10:35:04;24.40;80.50
54516;DHT22;40422;45.892;4.738;2023-08-31T10:37:30;24.50;81.30
54516;DHT22;40422;45.892;4.738;2023-08-31T10:40:16;24.70;79.40
54516;DHT22;40422;45.892;4.738;2023-08-31T10:42:45;24.50;78.50
54516;DHT22;40422;45.892;4.738;2023-08-31T10:45:13;24.50;77.00
54516;DHT22;40422;45.892;4.738;2023-08-31T10:47:41;24.50;77.30
54516;DHT22;40422;45.892;4.738;2023-08-31T10:50:18;24.70;77.50
54516;DHT22;40422;45.892;4.738;2023-08-31T10:52:44;25.10;76.30
54516;DHT22;40422;45.892;4.738;2023-08-31T10:55:11;25.50;76.70
54516;DHT22;40422;45.892;4.738;2023-08-31T10:57:37;25.80;74.70
54516;DHT22;40422;45.892;4.738;2023-08-31T11:00:03;26.10;74.40
54516;DHT22;40422;45.892;4.738;2023-08-31T11:05:01;26.10;74.10
54516;DHT22;40422;45.892;4.738;2023-08-31T11:07:31;26.00;74.90
54516;DHT22;40422;45.892;4.738;2023-08-31T11:10:17;25.90;74.30
54516;DHT22;40422;45.892;4.738;2023-08-31T11:12:44;25.70;74.40
54516;DHT22;40422;45.892;4.738;2023-08-31T11:15:14;25.30;75.80
54516;DHT22;40422;45.892;4.738;2023-08-31T11:17:44;25.00;76.30
54516;DHT22;40422;45.892;4.738;2023-08-31T11:20:18;24.90;76.70
54516;DHT22;40422;45.892;4.738;2023-08-31T11:22:46;24.90;76.40
54516;DHT22;40422;45.892;4.738;2023-08-31T11:25:13;25.10;74.60
54516;DHT22;40422;45.892;4.738;2023-08-31T11:27:39;25.20;74.00
54516;DHT22;40422;45.892;4.738;2023-08-31T11:30:12;25.60;75.00
54516;DHT22;40422;45.892;4.738;2023-08-31T11:32:45;25.90;73.40
54516;DHT22;40422;45.892;4.738;2023-08-31T11:35:11;26.00;72.50
54516;DHT22;40422;45.892;4.738;2023-08-31T11:37:37;26.20;72.30
54516;DHT22;40422;45.892;4.738;2023-08-31T11:40:03;26.50;72.50
54516;DHT22;40422;45.892;4.738;2023-08-31T11:42:31;26.90;72.10
54516;DHT22;40422;45.892;4.738;2023-08-31T11:44:57;27.00;71.00
54516;DHT22;40422;45.892;4.738;2023-08-31T11:47:23;26.70;71.20
54516;DHT22;40422;45.892;4.738;2023-08-31T11:49:51;26.80;71.80
54516;DHT22;40422;45.892;4.738;2023-08-31T11:52:18;27.00;71.60
54516;DHT22;40422;45.892;4.738;2023-08-31T11:54:44;27.30;71.50
54516;DHT22;40422;45.892;4.738;2023-08-31T11:57:11;27.80;69.80
54516;DHT22;40422;45.892;4.738;2023-08-31T11:59:38;28.20;68.90
54516;DHT22;40422;45.892;4.738;2023-08-31T12:02:07;28.60;68.30
54516;DHT22;40422;45.892;4.738;2023-08-31T12:04:45;29.00;69.30
54516;DHT22;40422;45.892;4.738;2023-08-31T12:07:16;29.40;68.20
54516;DHT22;40422;45.892;4.738;2023-08-31T12:09:42;29.80;67.80
54516;DHT22;40422;45.892;4.738;2023-08-31T12:12:13;29.50;65.00
54516;DHT22;40422;45.892;4.738;2023-08-31T12:14:40;29.10;65.40
54516;DHT22;40422;45.892;4.738;2023-08-31T12:17:07;29.20;65.90
54516;DHT22;40422;45.892;4.738;2023-08-31T12:19:36;29.50;65.40
54516;DHT22;40422;45.892;4.738;2023-08-31T12:22:01;29.70;64.70
54516;DHT22;40422;45.892;4.738;2023-08-31T12:24:27;30.00;61.60
54516;DHT22;40422;45.892;4.738;2023-08-31T12:26:53;29.90;58.90
54516;DHT22;40422;45.892;4.738;2023-08-31T12:29:19;29.90;60.10
54516;DHT22;40422;45.892;4.738;2023-08-31T12:31:45;29.80;59.10
54516;DHT22;40422;45.892;4.738;2023-08-31T12:34:11;29.70;59.20
54516;DHT22;40422;45.892;4.738;2023-08-31T12:36:36;29.70;60.10
54516;DHT22;40422;45.892;4.738;2023-08-31T12:39:04;29.70;60.30
54516;DHT22;40422;45.892;4.738;2023-08-31T12:41:32;29.20;60.20
54516;DHT22;40422;45.892;4.738;2023-08-31T12:43:58;29.40;60.30
54516;DHT22;40422;45.892;4.738;2023-08-31T12:46:24;29.90;60.40
54516;DHT22;40422;45.892;4.738;2023-08-31T12:48:53;29.90;57.70
54516;DHT22;40422;45.892;4.738;2023-08-31T12:51:19;29.60;56.70
54516;DHT22;40422;45.892;4.738;2023-08-31T12:53:45;29.10;56.90
54516;DHT22;40422;45.892;4.738;2023-08-31T12:56:12;28.90;57.30
54516;DHT22;40422;45.892;4.738;2023-08-31T12:58:38;28.90;58.10
54516;DHT22;40422;45.892;4.738;2023-08-31T13:01:04;28.30;57.70
54516;DHT22;40422;45.892;4.738;2023-08-31T13:03:30;28.10;58.30
54516;DHT22;40422;45.892;4.738;2023-08-31T13:05:56;28.10;59.80
54516;DHT22;40422;45.892;4.738;2023-08-31T13:08:21;28.40;59.00
54516;DHT22;40422;45.892;4.738;2023-08-31T13:10:54;28.50;59.20
54516;DHT22;40422;45.892;4.738;2023-08-31T13:13:20;29.00;59.20
54516;DHT22;40422;45.892;4.738;2023-08-31T13:15:49;29.80;59.40
54516;DHT22;40422;45.892;4.738;2023-08-31T13:18:15;30.60;58.10
54516;DHT22;40422;45.892;4.738;2023-08-31T13:20:51;31.20;57.50
54516;DHT22;40422;45.892;4.738;2023-08-31T13:23:16;31.70;56.90
54516;DHT22;40422;45.892;4.738;2023-08-31T13:25:43;31.90;57.10
54516;DHT22;40422;45.892;4.738;2023-08-31T13:28:08;31.90;56.30
54516;DHT22;40422;45.892;4.738;2023-08-31T13:30:35;32.20;56.80
54516;DHT22;40422;45.892;4.738;2023-08-31T13:33:00;32.50;55.30
54516;DHT22;40422;45.892;4.738;2023-08-31T13:35:27;32.70;55.20
54516;DHT22;40422;45.892;4.738;2023-08-31T13:37:52;33.00;55.20
54516;DHT22;40422;45.892;4.738;2023-08-31T13:40:18;32.70;54.20
54516;DHT22;40422;45.892;4.738;2023-08-31T13:42:59;32.60;54.50
54516;DHT22;40422;45.892;4.738;2023-08-31T13:45:31;32.60;54.60
54516;DHT22;40422;45.892;4.738;2023-08-31T13:47:58;32.20;53.80
54516;DHT22;40422;45.892;4.738;2023-08-31T13:50:28;31.90;54.50
54516;DHT22;40422;45.892;4.738;2023-08-31T13:52:54;31.80;53.90
54516;DHT22;40422;45.892;4.738;2023-08-31T13:55:20;31.80;53.80
54516;DHT22;40422;45.892;4.738;2023-08-31T13:57:46;31.90;54.20
54516;DHT22;40422;45.892;4.738;2023-08-31T14:00:12;32.10;53.70
54516;DHT22;40422;45.892;4.738;2023-08-31T14:02:38;32.00;53.00
54516;DHT22;40422;45.892;4.738;2023-08-31T14:05:05;31.70;53.90
54516;DHT22;40422;45.892;4.738;2023-08-31T14:07:35;31.10;53.60
54516;DHT22;40422;45.892;4.738;2023-08-31T14:10:00;30.70;53.10
54516;DHT22;40422;45.892;4.738;2023-08-31T14:12:26;30.60;53.20
54516;DHT22;40422;45.892;4.738;2023-08-31T14:14:52;30.80;53.70
54516;DHT22;40422;45.892;4.738;2023-08-31T14:17:18;30.70;52.50
54516;DHT22;40422;45.892;4.738;2023-08-31T14:19:44;30.70;53.30
54516;DHT22;40422;45.892;4.738;2023-08-31T14:22:10;30.70;54.70
54516;DHT22;40422;45.892;4.738;2023-08-31T14:24:36;30.60;52.90
54516;DHT22;40422;45.892;4.738;2023-08-31T14:27:03;30.20;53.40
54516;DHT22;40422;45.892;4.738;2023-08-31T14:29:28;30.00;54.40
54516;DHT22;40422;45.892;4.738;2023-08-31T14:31:54;30.30;54.20
54516;DHT22;40422;45.892;4.738;2023-08-31T14:34:21;30.80;54.10
54516;DHT22;40422;45.892;4.738;2023-08-31T14:36:47;30.90;53.40
54516;DHT22;40422;45.892;4.738;2023-08-31T14:39:12;30.80;52.70
54516;DHT22;40422;45.892;4.738;2023-08-31T14:41:38;30.30;51.90
54516;DHT22;40422;45.892;4.738;2023-08-31T14:44:04;29.90;52.10
54516;DHT22;40422;45.892;4.738;2023-08-31T14:46:30;29.70;52.60
54516;DHT22;40422;45.892;4.738;2023-08-31T14:48:55;29.30;53.10
54516;DHT22;40422;45.892;4.738;2023-08-31T14:51:21;28.80;53.60
54516;DHT22;40422;45.892;4.738;2023-08-31T14:53:46;28.80;54.80
54516;DHT22;40422;45.892;4.738;2023-08-31T14:56:12;28.90;54.20
54516;DHT22;40422;45.892;4.738;2023-08-31T14:58:38;29.00;53.90
54516;DHT22;40422;45.892;4.738;2023-08-31T15:01:04;28.90;53.80
54516;DHT22;40422;45.892;4.738;2023-08-31T15:03:30;28.70;53.60
54516;DHT22;40422;45.892;4.738;2023-08-31T15:05:55;28.60;54.20
54516;DHT22;40422;45.892;4.738;2023-08-31T15:08:23;28.90;54.30
54516;DHT22;40422;45.892;4.738;2023-08-31T15:11:01;29.30;53.90
54516;DHT22;40422;45.892;4.738;2023-08-31T15:13:27;29.50;53.90
54516;DHT22;40422;45.892;4.738;2023-08-31T15:15:55;29.90;54.20
54516;DHT22;40422;45.892;4.738;2023-08-31T15:18:21;30.20;53.70
54516;DHT22;40422;45.892;4.738;2023-08-31T15:20:49;30.60;54.60
54516;DHT22;40422;45.892;4.738;2023-08-31T15:23:15;30.80;54.00
54516;DHT22;40422;45.892;4.738;2023-08-31T15:25:40;30.90;53.20
54516;DHT22;40422;45.892;4.738;2023-08-31T15:28:07;31.10;53.60
54516;DHT22;40422;45.892;4.738;2023-08-31T15:30:33;31.10;52.50
54516;DHT22;40422;45.892;4.738;2023-08-31T15:33:03;31.20;52.90
54516;DHT22;40422;45.892;4.738;2023-08-31T15:35:29;31.10;52.90
54516;DHT22;40422;45.892;4.738;2023-08-31T15:37:55;30.90;53.70
54516;DHT22;40422;45.892;4.738;2023-08-31T15:40:20;30.80;53.70
54516;DHT22;40422;45.892;4.738;2023-08-31T15:42:47;30.80;53.50
54516;DHT22;40422;45.892;4.738;2023-08-31T15:45:13;30.80;53.30
54516;DHT22;40422;45.892;4.738;2023-08-31T15:47:38;30.80;53.90
54516;DHT22;40422;45.892;4.738;2023-08-31T15:50:04;30.80;54.20
54516;DHT22;40422;45.892;4.738;2023-08-31T15:52:30;30.90;54.30
54516;DHT22;40422;45.892;4.738;2023-08-31T15:54:57;30.90;54.40
54516;DHT22;40422;45.892;4.738;2023-08-31T15:57:23;31.00;54.20
54516;DHT22;40422;45.892;4.738;2023-08-31T15:59:49;30.90;54.10
54516;DHT22;40422;45.892;4.738;2023-08-31T16:02:15;31.00;53.90
54516;DHT22;40422;45.892;4.738;2023-08-31T16:04:42;31.00;54.70
54516;DHT22;40422;45.892;4.738;2023-08-31T16:07:09;31.10;54.30
54516;DHT22;40422;45.892;4.738;2023-08-31T16:09:38;31.20;54.50
54516;DHT22;40422;45.892;4.738;2023-08-31T16:12:04;31.30;53.80
54516;DHT22;40422;45.892;4.738;2023-08-31T16:14:30;31.50;53.40
54516;DHT22;40422;45.892;4.738;2023-08-31T16:16:55;31.70;54.00
54516;DHT22;40422;45.892;4.738;2023-08-31T16:19:21;31.70;53.70
54516;DHT22;40422;45.892;4.738;2023-08-31T16:21:47;31.70;53.80
54516;DHT22;40422;45.892;4.738;2023-08-31T16:24:14;31.70;54.00
54516;DHT22;40422;45.892;4.738;2023-08-31T16:26:40;31.70;53.70
54516;DHT22;40422;45.892;4.738;2023-08-31T16:29:07;31.60;54.10
54516;DHT22;40422;45.892;4.738;2023-08-31T16:31:32;31.50;53.60
54516;DHT22;40422;45.892;4.738;2023-08-31T16:33:58;31.40;53.90
54516;DHT22;40422;45.892;4.738;2023-08-31T16:36:25;31.30;54.10
54516;DHT22;40422;45.892;4.738;2023-08-31T16:38:50;31.30;55.20
54516;DHT22;40422;45.892;4.738;2023-08-31T16:41:16;31.10;54.20
54516;DHT22;40422;45.892;4.738;2023-08-31T16:43:42;30.70;54.30
54516;DHT22;40422;45.892;4.738;2023-08-31T16:46:07;30.50;55.50
54516;DHT22;40422;45.892;4.738;2023-08-31T16:48:33;30.20;55.10
54516;DHT22;40422;45.892;4.738;2023-08-31T16:50:59;30.00;55.60
54516;DHT22;40422;45.892;4.738;2023-08-31T16:53:24;29.80;55.80
54516;DHT22;40422;45.892;4.738;2023-08-31T16:55:50;29.70;56.20
54516;DHT22;40422;45.892;4.738;2023-08-31T16:58:15;29.40;56.30
54516;DHT22;40422;45.892;4.738;2023-08-31T17:00:41;29.20;56.70
54516;DHT22;40422;45.892;4.738;2023-08-31T17:03:07;29.10;57.10
54516;DHT22;40422;45.892;4.738;2023-08-31T17:05:32;28.90;57.20
54516;DHT22;40422;45.892;4.738;2023-08-31T17:07:58;28.70;57.60
54516;DHT22;40422;45.892;4.738;2023-08-31T17:10:24;28.70;58.00
54516;DHT22;40422;45.892;4.738;2023-08-31T17:12:49;28.50;57.30
54516;DHT22;40422;45.892;4.738;2023-08-31T17:15:15;28.50;58.00
54516;DHT22;40422;45.892;4.738;2023-08-31T17:17:41;28.40;57.60
54516;DHT22;40422;45.892;4.738;2023-08-31T17:20:11;28.40;58.60
54516;DHT22;40422;45.892;4.738;2023-08-31T17:22:46;28.40;58.50
54516;DHT22;40422;45.892;4.738;2023-08-31T17:25:12;28.20;58.00
54516;DHT22;40422;45.892;4.738;2023-08-31T17:27:39;28.10;58.70
54516;DHT22;40422;45.892;4.738;2023-08-31T17:30:05;28.00;59.80
54516;DHT22;40422;45.892;4.738;2023-08-31T17:32:33;28.00;60.00
54516;DHT22;40422;45.892;4.738;2023-08-31T17:34:59;28.00;60.00
54516;DHT22;40422;45.892;4.738;2023-08-31T17:37:28;28.00;59.90
54516;DHT22;40422;45.892;4.738;2023-08-31T17:39:54;27.90;60.70
54516;DHT22;40422;45.892;4.738;2023-08-31T17:42:19;27.80;61.10
54516;DHT22;40422;45.892;4.738;2023-08-31T17:44:45;27.60;60.80
54516;DHT22;40422;45.892;4.738;2023-08-31T17:47:18;27.40;61.70
54516;DHT22;40422;45.892;4.738;2023-08-31T17:49:43;27.20;61.50
54516;DHT22;40422;45.892;4.738;2023-08-31T17:52:10;27.00;61.70
54516;DHT22;40422;45.892;4.738;2023-08-31T17:54:35;26.80;61.60
54516;DHT22;40422;45.892;4.738;2023-08-31T17:57:01;26.70;62.00
54516;DHT22;40422;45.892;4.738;2023-08-31T17:59:28;26.60;62.10
54516;DHT22;40422;45.892;4.738;2023-08-31T18:01:53;26.40;62.60
54516;DHT22;40422;45.892;4.738;2023-08-31T18:04:20;26.30;62.70
54516;DHT22;40422;45.892;4.738;2023-08-31T18:06:50;26.10;63.40
54516;DHT22;40422;45.892;4.738;2023-08-31T18:09:17;26.00;63.80
54516;DHT22;40422;45.892;4.738;2023-08-31T18:11:43;25.90;64.30
54516;DHT22;40422;45.892;4.738;2023-08-31T18:14:08;25.70;64.60
54516;DHT22;40422;45.892;4.738;2023-08-31T18:16:34;25.70;65.90
54516;DHT22;40422;45.892;4.738;2023-08-31T18:19:00;25.50;65.90
54516;DHT22;40422;45.892;4.738;2023-08-31T18:21:26;25.40;66.70
54516;DHT22;40422;45.892;4.738;2023-08-31T18:23:51;25.20;66.00
54516;DHT22;40422;45.892;4.738;2023-08-31T18:26:17;25.20;67.00
54516;DHT22;40422;45.892;4.738;2023-08-31T18:28:43;25.10;66.90
54516;DHT22;40422;45.892;4.738;2023-08-31T18:31:09;24.90;67.60
54516;DHT22;40422;45.892;4.738;2023-08-31T18:33:35;24.80;68.00